Time;durP1;ratioP1;P1;durP2;ratioP2;P2;SDS_P1;SDS_P2;PMS_P1;PMS_P2;Temp;Humidity;BMP_temperature;BMP_pressure;BME280_temperature;BME280_humidity;BME280_pressure;Samples;Min_cycle;Max_cycle;Signal;HPM_P1;HPM_P2
2023/10/14 00:02:01;;;;;;;;;;;18.30;99.90;;;18.23;100.00;99017.81;4917272;29;20014;-84
2023/10/14 00:04:29;;;;;;;;;;;18.40;99.90;;;18.40;100.00;99039.25;4910910;29;19997;-82
2023/10/14 00:06:58;;;;;;;;;;;18.50;99.90;;;18.43;100.00;99035.06;4928516;29;20283;-86
2023/10/14 00:09:24;;;;;;;;;;;18.50;99.90;;;18.47;100.00;99049.88;4926362;29;19919;-83
2023/10/14 00:11:55;;;;;;;;;;;18.60;99.90;;;18.51;100.00;99030.78;4905468;29;20305;-84
2023/10/14 00:14:23;;;;;;;;;;;18.60;99.90;;;18.51;100.00;99015.00;4928128;29;19930;-85
2023/10/14 00:16:49;;;;;;;;;;;18.60;99.90;;;18.59;100.00;99007.94;4924299;29;19925;-84
2023/10/14 00:19:18;;;;;;;;;;;;;;;18.73;100.00;99016.19;4914410;29;19923;-81
2023/10/14 00:21:45;;;;;;;;;;;18.70;99.90;;;18.76;100.00;99014.75;4916841;29;19919;-84
2023/10/14 00:24:16;;;;;;;;;;;18.90;99.90;;;18.72;100.00;99011.78;4923544;29;19942;-84
2023/10/14 00:26:47;;;;;;;;;;;18.90;99.90;;;18.80;100.00;99024.84;4921071;29;19934;-86
2023/10/14 00:31:42;;;;;;;;;;;18.90;99.90;;;18.79;100.00;99017.69;4922288;29;19923;-85
2023/10/14 00:34:08;;;;;;;;;;;18.90;99.90;;;18.88;100.00;99000.41;4923587;29;19919;-86
2023/10/14 00:36:34;;;;;;;;;;;19.00;99.90;;;18.90;100.00;98987.88;4927569;29;19926;-82
2023/10/14 00:39:12;;;;;;;;;;;19.00;99.90;;;18.95;100.00;98995.25;4919783;29;19927;-82
2023/10/14 00:41:42;;;;;;;;;;;19.00;99.90;;;18.88;100.00;98964.47;4945413;29;19934;-85
2023/10/14 00:44:09;;;;;;;;;;;19.00;99.90;;;18.89;100.00;98955.88;4928012;29;19973;-83
2023/10/14 00:46:48;;;;;;;;;;;19.00;99.90;;;19.01;100.00;98969.16;4921847;29;19926;-82
2023/10/14 00:49:16;;;;;;;;;;;19.20;99.90;;;19.00;100.00;98961.19;4924509;29;19918;-84
2023/10/14 00:51:42;;;;;;;;;;;19.20;99.90;;;18.98;100.00;98969.78;4918853;29;19974;-83
2023/10/14 00:54:25;;;;;;;;;;;19.10;99.90;;;18.89;100.00;98958.63;4903743;29;19922;-84
2023/10/14 00:56:51;;;;;;;;;;;19.10;99.90;;;18.82;100.00;98936.97;4915723;29;19930;-82
2023/10/14 00:59:18;;;;;;;;;;;19.00;99.90;;;18.77;100.00;98952.88;4937953;29;19930;-84
2023/10/14 01:02:26;;;;;;;;;;;18.90;99.90;;;18.80;100.00;98955.78;4921627;29;19919;-81
2023/10/14 01:04:53;;;;;;;;;;;18.90;99.90;;;18.79;100.00;98950.59;4918227;29;19954;-81
2023/10/14 01:07:21;;;;;;;;;;;18.90;99.90;;;18.74;100.00;98957.06;4928328;29;19926;-85
2023/10/14 01:09:54;;;;;;;;;;;18.80;99.90;;;18.66;100.00;98946.75;4904828;29;19923;-85
2023/10/14 01:12:27;;;;;;;;;;;18.80;99.90;;;18.70;100.00;98953.28;4921522;29;20377;-83
2023/10/14 01:14:53;;;;;;;;;;;18.80;99.90;;;18.76;100.00;98960.31;4919958;29;20047;-85
2023/10/14 01:17:30;;;;;;;;;;;18.80;99.90;;;18.78;100.00;98949.78;4924799;29;20275;-82
2023/10/14 01:20:06;;;;;;;;;;;18.90;99.90;;;18.86;100.00;98952.94;4918674;29;19919;-85
2023/10/14 01:22:32;;;;;;;;;;;18.90;99.90;;;18.92;100.00;98948.91;4929614;29;19919;-83
2023/10/14 01:24:57;;;;;;;;;;;18.90;99.90;;;18.93;100.00;98956.06;4919877;29;20425;-85
2023/10/14 01:27:25;;;;;;;;;;;18.90;99.90;;;18.93;100.00;98956.06;4928255;29;19922;-82
2023/10/14 01:29:51;;;;;;;;;;;18.90;99.90;;;18.92;100.00;98959.97;4918722;29;19919;-83
2023/10/14 01:33:35;;;;;;;;;;;18.90;99.90;;;18.95;100.00;98964.84;4922356;29;20010;-81
2023/10/14 01:35:31;;;;;;;;;;;18.90;99.90;;;18.88;100.00;98945.94;4925320;29;19926;-82
2023/10/14 01:37:59;;;;;;;;;;;18.90;99.90;;;18.96;100.00;98949.91;4923079;29;19930;-82
2023/10/14 01:40:29;;;;;;;;;;;18.90;99.90;;;18.97;100.00;98934.97;4934029;29;20003;-82
2023/10/14 01:42:58;;;;;;;;;;;18.90;99.90;;;18.95;100.00;98937.22;4928905;29;20331;-84
2023/10/14 01:45:31;;;;;;;;;;;18.90;99.90;;;19.02;100.00;98929.31;4921764;29;20323;-82
2023/10/14 01:50:57;;;;;;;;;;;19.00;99.90;;;19.06;100.00;98932.28;4925070;29;19918;-85
2023/10/14 01:53:27;;;;;;;;;;;19.00;99.90;;;18.85;100.00;98929.19;4908203;29;19923;-85
2023/10/14 01:55:58;;;;;;;;;;;18.90;99.90;;;18.61;100.00;98927.56;4932704;29;20387;-84
2023/10/14 02:00:53;;;;;;;;;;;18.60;99.90;;;18.60;100.00;98959.06;4925722;29;19919;-83
2023/10/14 02:03:23;;;;;;;;;;;18.60;99.90;;;17.70;100.00;98977.75;4917538;29;19953;-87
2023/10/14 02:05:52;;;;;;;;;;;18.20;99.90;;;17.50;100.00;98967.91;4942974;29;20004;-89
2023/10/14 02:08:21;;;;;;;;;;;17.90;99.90;;;17.06;100.00;98959.84;4927979;29;19918;-87
2023/10/14 02:10:53;;;;;;;;;;;17.50;99.90;;;16.35;100.00;98891.00;4917967;29;20323;-80
2023/10/14 02:13:24;;;;;;;;;;;16.80;99.90;;;15.56;100.00;98790.63;4918228;29;19926;-81
2023/10/14 02:15:52;;;;;;;;;;;16.20;99.90;;;15.51;100.00;98744.78;4917304;29;20326;-81
2023/10/14 02:18:20;;;;;;;;;;;15.90;99.90;;;15.43;100.00;98683.06;4933371;29;20331;-78
2023/10/14 02:20:56;;;;;;;;;;;15.80;99.90;;;15.37;100.00;98638.38;4927776;29;19923;-79
2023/10/14 02:23:26;;;;;;;;;;;15.60;99.90;;;15.34;100.00;98599.72;4922265;29;19926;-79
2023/10/14 02:25:56;;;;;;;;;;;15.60;99.90;;;14.95;100.00;98667.53;4918031;29;19927;-79
2023/10/14 02:28:29;;;;;;;;;;;15.50;99.90;;;12.87;100.00;98575.38;4920928;29;19926;-81
2023/10/14 02:31:00;;;;;;;;;;;13.90;99.90;;;12.07;100.00;98500.56;4918265;29;20013;-83
2023/10/14 02:33:26;;;;;;;;;;;13.00;99.90;;;12.04;100.00;98542.13;4916870;29;19919;-80
2023/10/14 02:35:56;;;;;;;;;;;12.70;99.90;;;12.05;100.00;98560.16;4936776;29;20426;-81
2023/10/14 02:38:24;;;;;;;;;;;;;;;12.00;100.00;98569.13;4918255;29;19919;-82
2023/10/14 02:40:50;;;;;;;;;;;;;;;11.90;100.00;98559.03;4916212;29;20074;-82
2023/10/14 02:43:16;;;;;;;;;;;12.60;99.90;;;11.80;100.00;98542.69;4930580;29;19926;-82
2023/10/14 02:45:45;;;;;;;;;;;12.40;99.90;;;11.86;100.00;98570.81;4926845;29;19922;-81
2023/10/14 02:48:11;;;;;;;;;;;12.30;99.90;;;11.87;100.00;98565.06;4922519;29;20385;-81
2023/10/14 02:50:37;;;;;;;;;;;12.30;99.90;;;11.78;100.00;98577.66;4922682;29;19919;-81
2023/10/14 02:53:06;;;;;;;;;;;12.30;99.90;;;11.87;100.00;98583.38;4921589;29;19923;-83
2023/10/14 02:55:52;;;;;;;;;;;12.30;99.90;;;11.92;100.00;98581.44;4924309;29;19930;-81
2023/10/14 02:58:21;;;;;;;;;;;12.30;99.90;;;11.96;100.00;98564.53;4917366;29;20030;-83
2023/10/14 03:00:57;;;;;;;;;;;12.30;99.90;;;11.94;100.00;98562.06;4920433;29;19923;-81
2023/10/14 03:03:23;;;;;;;;;;;12.30;99.90;;;12.05;100.00;98541.00;4926168;29;20017;-79
2023/10/14 03:05:52;;;;;;;;;;;12.30;99.90;;;12.00;100.00;98579.25;4920675;29;20326;-82
2023/10/14 03:08:18;;;;;;;;;;;12.30;99.90;;;12.09;100.00;98591.28;4924849;29;19926;-83
2023/10/14 03:10:45;;;;;;;;;;;12.40;99.90;;;12.15;100.00;98578.44;4920729;29;19926;-83
2023/10/14 03:13:13;;;;;;;;;;;12.40;99.90;;;12.07;100.00;98558.78;4926201;29;19927;-82
2023/10/14 03:15:39;;;;;;;;;;;12.40;99.90;;;12.11;100.00;98602.75;4920897;29;20363;-80
2023/10/14 03:18:06;;;;;;;;;;;12.50;99.90;;;12.14;100.00;98620.53;4931731;29;19919;-83
2023/10/14 03:20:36;;;;;;;;;;;12.50;99.90;;;12.25;100.00;98615.84;4922488;29;19919;-82
2023/10/14 03:23:12;;;;;;;;;;;12.50;99.90;;;12.29;100.00;98608.72;4918360;29;20006;-81
2023/10/14 03:25:39;;;;;;;;;;;12.50;99.90;;;12.27;100.00;98608.19;4920295;29;19966;-82
2023/10/14 03:30:37;;;;;;;;;;;12.60;99.90;;;12.36;100.00;98617.44;4917087;29;19919;-80
2023/10/14 03:33:09;;;;;;;;;;;12.60;99.90;;;12.29;100.00;98623.22;4913471;29;19922;-81
2023/10/14 03:35:36;;;;;;;;;;;12.60;99.90;;;12.33;100.00;98648.09;4916877;29;19926;-82
2023/10/14 03:38:05;;;;;;;;;;;12.70;99.90;;;12.28;100.00;98651.66;4915757;29;19938;-83
2023/10/14 03:43:15;;;;;;;;;;;12.60;99.90;;;12.22;100.00;98680.09;4921296;29;19938;-82
2023/10/14 03:45:56;;;;;;;;;;;12.50;99.90;;;12.16;100.00;98686.66;4915710;29;20341;-82
2023/10/14 03:48:28;;;;;;;;;;;12.50;99.90;;;12.20;100.00;98715.94;4916194;29;19970;-82
2023/10/14 03:51:02;;;;;;;;;;;12.50;99.90;;;12.21;100.00;98720.28;4925689;29;19981;-82
2023/10/14 03:53:32;;;;;;;;;;;12.50;99.90;;;12.19;100.00;98700.59;4940516;29;19922;-84
2023/10/14 03:56:01;;;;;;;;;;;12.50;99.90;;;12.16;100.00;98723.00;4925989;29;19962;-82
2023/10/14 03:58:31;;;;;;;;;;;12.50;99.90;;;12.13;100.00;98711.81;4919709;29;20013;-86
2023/10/14 04:00:59;;;;;;;;;;;12.50;99.90;;;12.15;100.00;98709.63;4917447;29;19919;-82
2023/10/14 04:03:40;;;;;;;;;;;12.40;99.90;;;12.16;100.00;98717.53;4926264;29;19922;-87
2023/10/14 04:06:13;;;;;;;;;;;12.40;99.90;;;12.17;100.00;98721.13;4916397;29;19934;-84
2023/10/14 04:08:48;;;;;;;;;;;12.40;99.90;;;12.08;100.00;98724.41;4925624;29;19922;-83
2023/10/14 04:11:35;;;;;;;;;;;12.40;99.90;;;12.11;100.00;98724.94;4931108;29;19918;-84
2023/10/14 04:14:08;;;;;;;;;;;12.40;99.90;;;12.13;100.00;98722.75;4920814;29;19997;-83
2023/10/14 04:22:26;;;;;;;;;;;12.30;99.90;;;12.01;100.00;98721.09;4939201;29;19919;-81
2023/10/14 04:35:23;;;;;;;;;;;11.70;99.90;;;10.98;100.00;98884.56;4923953;29;19926;-84
2023/10/14 04:37:52;;;;;;;;;;;11.50;99.90;;;10.99;100.00;98895.25;4919315;29;19918;-86
2023/10/14 04:46:12;;;;;;;;;;;11.50;99.90;;;10.94;100.00;99045.28;4925982;29;19919;-84
2023/10/14 04:48:39;;;;;;;;;;;11.40;99.90;;;10.91;100.00;99060.25;4920949;29;20280;-86
2023/10/14 04:51:08;;;;;;;;;;;11.40;99.90;;;11.04;100.00;99077.28;4919282;29;20029;-85
2023/10/14 04:53:34;;;;;;;;;;;11.40;99.90;;;11.08;100.00;99084.69;4919327;29;19925;-85
2023/10/14 04:56:22;;;;;;;;;;;11.40;99.90;;;11.04;100.00;99082.75;4905738;29;19962;-84
2023/10/14 04:58:52;;;;;;;;;;;11.40;99.90;;;11.02;100.00;99099.38;4926255;29;19919;-83
2023/10/14 05:01:18;;;;;;;;;;;11.40;99.90;;;10.90;100.00;99113.16;4936499;29;19918;-84
2023/10/14 05:03:47;;;;;;;;;;;11.30;99.90;;;10.83;100.00;99112.53;4935249;29;20291;-84
2023/10/14 05:08:44;;;;;;;;;;;11.20;99.90;;;10.84;100.00;99125.09;4920095;29;20435;-82
2023/10/14 05:11:15;;;;;;;;;;;11.20;99.90;;;10.76;100.00;99133.75;4917116;29;19941;-86
2023/10/14 05:13:44;;;;;;;;;;;11.10;99.90;;;10.71;100.00;99159.06;4916868;29;19919;-80
2023/10/14 05:16:20;;;;;;;;;;;11.10;99.90;;;10.63;100.00;99159.50;4923307;29;19919;-82
2023/10/14 05:19:00;;;;;;;;;;;11.00;99.90;;;10.63;100.00;99190.31;4918656;29;19989;-80
2023/10/14 05:21:43;;;;;;;;;;;11.00;99.90;;;10.64;100.00;99205.59;4905496;29;19932;-82
2023/10/14 05:24:10;;;;;;;;;;;11.00;99.90;;;10.60;100.00;99225.44;4931129;29;20256;-82
2023/10/14 05:26:46;;;;;;;;;;;10.90;99.90;;;10.53;100.00;99232.97;4931956;29;19919;-82
2023/10/14 05:29:19;;;;;;;;;;;10.80;99.90;;;10.45;100.00;99237.81;4926515;29;20441;-82
2023/10/14 05:31:46;;;;;;;;;;;10.70;99.90;;;10.36;100.00;99236.56;4932741;29;19919;-82
2023/10/14 05:34:13;;;;;;;;;;;10.70;99.90;;;10.41;100.00;99252.16;4923704;29;20378;-82
2023/10/14 05:36:39;;;;;;;;;;;10.70;99.90;;;10.31;100.00;99258.25;4917008;29;19919;-82
2023/10/14 05:39:06;;;;;;;;;;;10.70;99.90;;;10.33;100.00;99275.19;4922607;29;20378;-86
2023/10/14 05:41:33;;;;;;;;;;;10.60;99.90;;;10.26;100.00;99271.81;4934904;29;20017;-86
2023/10/14 05:43:59;;;;;;;;;;;10.50;99.90;;;10.21;100.00;99280.72;4919292;29;19929;-87
2023/10/14 05:46:25;;;;;;;;;;;10.40;99.90;;;10.17;100.00;99285.03;4929622;29;20426;-81
2023/10/14 05:48:53;;;;;;;;;;;10.40;99.90;;;10.18;100.00;99292.13;4918557;29;19926;-80
2023/10/14 05:51:21;;;;;;;;;;;10.40;99.90;;;10.11;100.00;99280.56;4918000;29;19919;-81
2023/10/14 05:53:47;;;;;;;;;;;10.30;99.90;;;10.09;100.00;99289.00;4943954;29;19919;-80
2023/10/14 05:56:14;;;;;;;;;;;10.30;99.90;;;10.03;100.00;99284.53;4936608;29;19986;-81
2023/10/14 05:58:45;;;;;;;;;;;10.20;99.90;;;10.00;100.00;99285.84;4923539;29;19919;-82
2023/10/14 06:01:13;;;;;;;;;;;10.20;99.90;;;10.02;100.00;99297.34;4939814;29;19919;-80
2023/10/14 06:03:43;;;;;;;;;;;10.10;99.90;;;10.01;100.00;99295.69;4922896;29;19919;-81
2023/10/14 06:06:10;;;;;;;;;;;10.20;99.90;;;10.03;100.00;99317.22;4923806;29;19926;-82
2023/10/14 06:08:39;;;;;;;;;;;10.10;99.90;;;10.07;100.00;99324.66;4930121;29;19923;-81
2023/10/14 06:11:05;;;;;;;;;;;10.20;99.90;;;10.03;100.00;99333.56;4919916;29;19919;-81
2023/10/14 06:13:34;;;;;;;;;;;10.20;99.90;;;10.05;100.00;99345.88;4927563;29;19957;-83
2023/10/14 06:16:07;;;;;;;;;;;10.20;99.90;;;10.06;100.00;99352.16;4928904;29;19923;-84
2023/10/14 06:18:32;;;;;;;;;;;10.30;99.90;;;9.99;100.00;99368.66;4933098;29;19971;-87
2023/10/14 06:20:59;;;;;;;;;;;10.30;99.90;;;10.13;100.00;99399.16;4925117;29;19922;-84
2023/10/14 06:23:28;;;;;;;;;;;10.30;99.90;;;10.16;100.00;99415.03;4921306;29;19922;-86
2023/10/14 06:25:55;;;;;;;;;;;10.30;99.90;;;10.11;100.00;99422.28;4918829;29;19919;-86
2023/10/14 06:28:21;;;;;;;;;;;10.30;99.90;;;10.10;100.00;99443.25;4919403;29;20362;-87
2023/10/14 06:30:46;;;;;;;;;;;10.30;99.90;;;10.24;100.00;99456.59;4922835;29;19925;-86
2023/10/14 06:33:12;;;;;;;;;;;10.40;99.90;;;10.20;100.00;99462.53;4922230;29;19919;-86
2023/10/14 06:35:42;;;;;;;;;;;10.30;99.90;;;10.17;100.00;99467.63;4930447;29;20010;-88
2023/10/14 06:38:09;;;;;;;;;;;10.30;99.90;;;10.25;100.00;99482.78;4921283;29;19919;-85
2023/10/14 06:40:36;;;;;;;;;;;10.30;99.90;;;10.22;100.00;99490.38;4920016;29;19949;-85
2023/10/14 06:43:09;;;;;;;;;;;10.40;99.90;;;10.29;100.00;99500.28;4929850;29;19919;-88
2023/10/14 06:45:36;;;;;;;;;;;10.40;99.90;;;10.31;100.00;99514.50;4932500;29;19927;-84
2023/10/14 06:48:03;;;;;;;;;;;10.40;99.90;;;10.41;100.00;99535.72;4932696;29;20127;-87
2023/10/14 06:50:31;;;;;;;;;;;10.50;99.90;;;10.42;100.00;99548.28;4929662;29;19926;-88
2023/10/14 06:53:00;;;;;;;;;;;10.50;99.90;;;10.46;100.00;99563.91;4915399;29;19919;-89
2023/10/14 06:55:37;;;;;;;;;;;10.50;99.90;;;10.36;100.00;99564.50;4927728;29;20235;-88
2023/10/14 06:58:11;;;;;;;;;;;10.60;99.90;;;10.57;100.00;99599.56;4928645;29;20588;-81
2023/10/14 07:00:38;;;;;;;;;;;10.70;99.90;;;10.63;100.00;99636.78;4929689;29;20018;-85
2023/10/14 07:03:14;;;;;;;;;;;10.80;99.90;;;10.89;100.00;99708.25;4930223;29;20390;-89
2023/10/14 07:05:48;;;;;;;;;;;11.00;99.90;;;10.99;100.00;99735.72;4926812;29;19919;-84
2023/10/14 07:08:15;;;;;;;;;;;11.10;99.90;;;11.09;100.00;99751.47;4935946;29;19940;-86
2023/10/14 07:10:41;;;;;;;;;;;11.20;99.90;;;11.21;100.00;99765.91;4915391;29;20010;-91
2023/10/14 07:13:08;;;;;;;;;;;11.30;99.90;;;11.20;100.00;99782.56;4915458;29;19919;-86
2023/10/14 07:15:38;;;;;;;;;;;11.30;99.90;;;11.28;100.00;99784.88;4931889;29;20278;-86
2023/10/14 07:18:04;;;;;;;;;;;11.50;99.90;;;11.38;100.00;99797.91;4929333;29;19927;-87
2023/10/14 07:20:30;;;;;;;;;;;11.50;99.90;;;11.41;100.00;99804.81;4926819;29;19919;-88
2023/10/14 07:22:56;;;;;;;;;;;11.60;99.90;;;11.41;100.00;99807.53;4911981;29;19927;-83
2023/10/14 07:25:23;;;;;;;;;;;11.60;99.90;;;11.49;100.00;99827.06;4932902;29;19942;-86
2023/10/14 07:27:51;;;;;;;;;;;11.70;99.90;;;11.50;100.00;99845.13;4926694;29;19927;-85
2023/10/14 07:30:18;;;;;;;;;;;11.70;99.90;;;11.58;100.00;99843.09;4933459;29;19918;-88
2023/10/14 07:32:44;;;;;;;;;;;11.80;99.90;;;11.66;100.00;99856.38;4930869;29;19914;-88
2023/10/14 07:35:16;;;;;;;;;;;11.90;99.90;;;11.79;100.00;99860.72;4932315;29;19918;-90
2023/10/14 07:37:44;;;;;;;;;;;11.90;99.90;;;11.75;100.00;99875.94;4933796;29;19925;-89
2023/10/14 07:40:22;;;;;;;;;;;12.00;99.90;;;11.74;100.00;99864.16;4931724;29;20009;-82
2023/10/14 07:43:22;;;;;;;;;;;12.00;99.90;;;11.78;100.00;99880.91;4927440;29;19946;-82
2023/10/14 07:45:47;;;;;;;;;;;12.10;99.90;;;11.85;100.00;99887.06;4926957;29;19919;-83
2023/10/14 07:48:17;;;;;;;;;;;12.20;99.90;;;11.88;100.00;99894.75;4929074;29;19918;-86
2023/10/14 07:50:46;;;;;;;;;;;12.30;99.90;;;11.93;100.00;99894.03;4929740;29;20311;-86
2023/10/14 07:53:14;;;;;;;;;;;12.30;99.90;;;11.94;100.00;99901.16;4923267;29;19931;-83
2023/10/14 07:55:47;;;;;;;;;;;12.30;99.90;;;12.08;100.00;99912.66;4916593;29;20003;-86
2023/10/14 07:58:18;;;;;;;;;;;12.40;99.90;;;11.99;100.00;99894.97;4929761;29;20378;-85
2023/10/14 08:00:49;;;;;;;;;;;12.40;99.90;;;12.18;100.00;99923.78;4928455;29;19926;-85
2023/10/14 08:03:16;;;;;;;;;;;12.50;99.90;;;12.01;100.00;99918.28;4927473;29;20394;-84
2023/10/14 08:05:48;;;;;;;;;;;12.50;99.90;;;12.11;100.00;99928.56;4928712;29;19941;-87
2023/10/14 08:08:14;;;;;;;;;;;12.50;99.90;;;12.20;100.00;99929.84;4930332;29;19918;-87
2023/10/14 08:10:42;;;;;;;;;;;12.60;99.90;;;12.27;100.00;99942.53;4930415;29;20622;-90
2023/10/14 08:13:12;;;;;;;;;;;12.60;99.90;;;12.32;100.00;99950.84;4929534;29;20402;-84
2023/10/14 08:15:40;;;;;;;;;;;12.70;99.90;;;12.54;100.00;99945.47;4930351;29;19919;-87
2023/10/14 08:18:06;;;;;;;;;;;12.70;99.90;;;12.52;100.00;99950.38;4934391;29;20013;-81
2023/10/14 08:20:34;;;;;;;;;;;12.80;99.90;;;12.54;100.00;99958.34;4932646;29;19923;-82
2023/10/14 08:23:00;;;;;;;;;;;12.90;99.90;;;12.47;100.00;99948.38;4908940;29;19958;-83
2023/10/14 08:25:28;;;;;;;;;;;12.90;99.90;;;12.48;100.00;99961.00;4928919;29;20359;-87
2023/10/14 08:27:57;;;;;;;;;;;13.00;99.90;;;12.82;100.00;99964.81;4911304;29;19969;-85
2023/10/14 08:30:32;;;;;;;;;;;13.00;99.90;;;12.86;100.00;99971.47;4912534;29;19925;-82
2023/10/14 08:32:59;;;;;;;;;;;13.10;99.90;;;12.71;100.00;99977.50;4926829;29;19976;-85
2023/10/14 08:35:27;;;;;;;;;;;13.20;99.90;;;12.72;100.00;99970.97;4915894;29;19942;-89
2023/10/14 08:37:54;;;;;;;;;;;13.20;99.90;;;12.98;100.00;99971.38;4927253;29;19922;-86
2023/10/14 08:40:22;;;;;;;;;;;13.30;99.90;;;12.87;100.00;99968.47;4927711;29;20397;-83
2023/10/14 08:42:55;;;;;;;;;;;13.30;99.90;;;12.86;100.00;99975.00;4919206;29;20479;-83
2023/10/14 08:45:22;;;;;;;;;;;13.30;99.90;;;13.05;100.00;100000.25;4908841;29;19923;-82
2023/10/14 08:47:52;;;;;;;;;;;13.30;99.90;;;13.09;100.00;99992.34;4930818;29;20383;-85
2023/10/14 08:50:25;;;;;;;;;;;13.40;99.90;;;13.15;100.00;99991.38;4930293;29;19923;-86
2023/10/14 08:52:56;;;;;;;;;;;13.50;99.90;;;12.88;100.00;100013.09;4929191;29;20433;-85
2023/10/14 08:55:22;;;;;;;;;;;13.40;99.90;;;12.79;100.00;99994.34;4929716;29;19953;-84
2023/10/14 08:57:50;;;;;;;;;;;13.30;99.90;;;13.09;100.00;100011.53;4917782;29;19970;-88
2023/10/14 09:00:19;;;;;;;;;;;13.40;99.90;;;13.09;100.00;100017.84;4926348;29;19918;-84
2023/10/14 09:02:53;;;;;;;;;;;13.50;99.90;;;13.31;100.00;100028.03;4927985;29;19959;-86
2023/10/14 09:05:20;;;;;;;;;;;13.60;99.90;;;13.33;100.00;100025.88;4927103;29;19918;-85
2023/10/14 09:07:49;;;;;;;;;;;13.80;99.90;;;13.28;100.00;100044.13;4929954;29;20331;-86
2023/10/14 09:10:18;;;;;;;;;;;13.80;99.90;;;13.51;100.00;100043.16;4946875;28;20279;-85
2023/10/14 09:13:08;;;;;;;;;;;13.90;99.90;;;13.22;100.00;100018.56;4919053;29;20295;-85
2023/10/14 09:15:39;;;;;;;;;;;13.90;99.90;;;13.57;100.00;100035.84;4928438;29;19966;-86
2023/10/14 09:18:12;;;;;;;;;;;13.90;99.90;;;13.66;100.00;100045.31;4925634;29;19970;-83
2023/10/14 09:20:39;;;;;;;;;;;14.00;99.90;;;13.65;100.00;100047.19;4926437;29;20402;-87
2023/10/14 09:23:19;;;;;;;;;;;14.10;99.90;;;13.54;100.00;100058.25;4930130;29;19930;-84
2023/10/14 09:25:46;;;;;;;;;;;14.10;99.90;;;13.83;100.00;100061.72;4916167;29;19919;-85
2023/10/14 09:28:12;;;;;;;;;;;14.20;99.90;;;13.82;100.00;100065.53;4927160;29;19966;-87
2023/10/14 09:30:44;;;;;;;;;;;14.20;99.90;;;14.09;100.00;100064.78;4933241;29;19918;-84
2023/10/14 09:33:15;;;;;;;;;;;14.50;99.90;;;14.28;100.00;100051.59;4928888;29;19954;-91
2023/10/14 09:35:48;;;;;;;;;;;14.70;99.90;;;14.18;100.00;100073.38;4931251;29;19922;-84
2023/10/14 09:38:22;;;;;;;;;;;;;;;14.53;100.00;100053.78;4915187;29;20005;-86
2023/10/14 09:41:04;;;;;;;;;;;15.00;99.90;;;14.41;100.00;100066.81;4920718;29;20138;-87
2023/10/14 09:43:42;;;;;;;;;;;15.50;99.90;;;14.64;100.00;100064.88;4930766;29;20363;-86
2023/10/14 09:46:11;;;;;;;;;;;;;;;14.79;100.00;100073.28;4926733;29;19923;-85
2023/10/14 09:48:37;;;;;;;;;;;15.80;99.90;;;15.14;100.00;100076.63;4927510;29;20252;-85
2023/10/14 09:51:06;;;;;;;;;;;16.80;99.90;;;14.70;100.00;100063.84;4937348;29;19994;-87
2023/10/14 09:53:36;;;;;;;;;;;16.10;99.90;;;15.49;100.00;100078.00;4933906;29;19923;-88
2023/10/14 09:56:12;;;;;;;;;;;16.20;99.90;;;15.97;100.00;100077.25;4924443;29;19919;-84
2023/10/14 09:58:43;;;;;;;;;;;16.70;99.60;;;16.54;100.00;100082.97;4929795;29;19927;-85
2023/10/14 10:01:19;;;;;;;;;;;17.40;98.40;;;16.64;99.66;100085.78;4926823;29;19919;-84
2023/10/14 10:03:50;;;;;;;;;;;17.50;95.60;;;16.38;98.72;100080.19;4927750;29;19919;-84
2023/10/14 10:06:33;;;;;;;;;;;17.50;94.60;;;15.88;94.63;100093.41;4915749;29;20394;-88
2023/10/14 10:09:29;;;;;;;;;;;17.30;92.50;;;15.89;93.00;100088.75;4923650;29;19966;-86
2023/10/14 10:11:57;;;;;;;;;;;;;;;15.28;95.35;100096.25;4926059;29;19926;-84
2023/10/14 10:14:25;;;;;;;;;;;16.90;93.00;;;15.34;100.00;100108.94;4930554;29;19919;-86
2023/10/14 10:16:52;;;;;;;;;;;16.20;95.90;;;15.04;100.00;100106.78;4920873;29;19994;-86
2023/10/14 10:19:21;;;;;;;;;;;15.90;97.00;;;14.72;100.00;100110.28;4916674;29;19922;-90
2023/10/14 10:22:12;;;;;;;;;;;15.60;97.80;;;14.46;100.00;100119.03;4927232;29;19923;-88
2023/10/14 10:24:41;;;;;;;;;;;15.20;99.90;;;14.94;100.00;100110.25;4933829;29;19934;-86
2023/10/14 10:27:10;;;;;;;;;;;15.20;99.90;;;15.24;100.00;100122.63;4919088;29;19927;-86
2023/10/14 10:29:55;;;;;;;;;;;15.80;98.60;;;14.80;100.00;100096.91;4948007;29;19927;-85
2023/10/14 10:32:22;;;;;;;;;;;15.70;97.90;;;15.08;100.00;100122.47;4930457;29;19926;-91
2023/10/14 10:35:06;;;;;;;;;;;15.90;98.70;;;15.36;100.00;100127.94;4931393;29;19934;-89
2023/10/14 10:37:53;;;;;;;;;;;15.90;98.20;;;15.87;97.73;100129.44;4951468;28;20014;-86
2023/10/14 10:40:25;;;;;;;;;;;16.60;94.30;;;16.83;91.35;100134.84;4928019;29;19922;-89
2023/10/14 10:42:57;;;;;;;;;;;17.60;92.80;;;17.33;81.60;100126.97;4928247;29;19942;-86
2023/10/14 10:45:31;;;;;;;;;;;;;;;17.71;80.12;100134.97;4934319;29;19973;-86
2023/10/14 10:48:03;;;;;;;;;;;17.80;90.20;;;17.07;76.21;100112.31;4929902;29;19930;-84
2023/10/14 10:50:40;;;;;;;;;;;18.70;83.70;;;17.14;82.24;100159.75;4929256;29;19919;-88
2023/10/14 10:53:06;;;;;;;;;;;;;;;17.73;74.06;100142.94;4931284;29;20331;-83
2023/10/14 10:55:36;;;;;;;;;;;;;;;18.39;73.47;100149.47;4924994;29;20368;-86
2023/10/14 10:58:03;;;;;;;;;;;;;;;19.59;63.59;100130.25;4926942;29;19922;-87
2023/10/14 11:00:32;;;;;;;;;;;;;;;19.37;64.77;100139.81;4918401;29;20031;-86
2023/10/14 11:02:59;;;;;;;;;;;;;;;18.22;68.17;100147.84;4925547;29;19978;-87
2023/10/14 11:05:26;;;;;;;;;;;;;;;19.69;62.28;100142.06;4929074;29;19919;-87
2023/10/14 11:07:53;;;;;;;;;;;;;;;20.87;58.59;100127.19;4931578;29;19990;-90
2023/10/14 11:10:26;;;;;;;;;;;;;;;20.30;59.35;100143.69;4931109;29;19907;-90
2023/10/14 11:12:54;;;;;;;;;;;;;;;19.07;59.62;100138.94;4934773;29;19918;-88
2023/10/14 11:15:21;;;;;;;;;;;17.60;87.40;;;17.31;69.63;100156.75;4933394;29;19925;-88
2023/10/14 11:17:56;;;;;;;;;;;19.00;76.90;;;16.78;71.13;100154.94;4938261;29;20033;-91
2023/10/14 11:20:24;;;;;;;;;;;;;;;17.82;66.78;100150.38;4927747;29;20363;-93
2023/10/14 11:22:50;;;;;;;;;;;;;;;18.86;61.12;100150.06;4925839;29;19919;-89
2023/10/14 11:25:18;;;;;;;;;;;;;;;19.73;59.03;100144.25;4931987;29;19929;-88
2023/10/14 11:27:45;;;;;;;;;;;;;;;18.19;64.41;100148.41;4943380;29;19919;-84
2023/10/14 11:30:12;;;;;;;;;;;;;;;19.01;59.06;100140.91;4923214;29;19966;-90
2023/10/14 11:32:49;;;;;;;;;;;;;;;19.94;53.82;100120.81;4929178;29;19919;-88
2023/10/14 11:35:16;;;;;;;;;;;;;;;20.24;52.96;100116.06;4930383;29;19974;-87
2023/10/14 11:37:42;;;;;;;;;;;;;;;21.11;49.49;100109.66;4926037;29;19914;-83
2023/10/14 11:40:12;;;;;;;;;;;;;;;18.79;53.65;100097.88;4932461;29;19933;-84
2023/10/14 11:42:39;;;;;;;;;;;;;;;19.53;58.33;100146.06;4918993;29;19919;-84
2023/10/14 11:45:06;;;;;;;;;;;;;;;20.96;51.26;100117.06;4918665;29;19970;-84
2023/10/14 11:47:36;;;;;;;;;;;;;;;22.02;48.30;100124.22;4919562;29;19974;-86
2023/10/14 11:50:11;;;;;;;;;;;;;;;22.57;45.36;100114.25;4927101;29;19919;-88
2023/10/14 11:52:43;;;;;;;;;;;;;;;22.99;44.53;100106.66;4908694;29;19919;-84
2023/10/14 11:55:16;;;;;;;;;;;;;;;23.34;41.72;100106.13;4927178;29;19925;-84
2023/10/14 11:57:43;;;;;;;;;;;;;;;21.93;42.30;100082.44;4925725;29;19974;-85
2023/10/14 12:00:11;;;;;;;;;;;;;;;22.41;43.16;100097.91;4922101;29;19978;-87
2023/10/14 12:02:39;;;;;;;;;;;;;;;22.68;43.77;100114.84;4935349;29;20335;-85
2023/10/14 12:05:05;;;;;;;;;;;;;;;21.11;45.46;100099.38;4932686;29;19918;-88
2023/10/14 12:07:34;;;;;;;;;;;;;;;21.14;46.36;100117.38;4924060;29;19923;-84
2023/10/14 12:10:00;;;;;;;;;;;;;;;20.84;45.61;100108.41;4924717;29;19919;-83
2023/10/14 12:12:27;;;;;;;;;;;;;;;21.45;44.58;100102.16;4911231;29;19919;-84